Deimos — 3EOQ6 — position and weather

sailwx.info

Track history (hours):
 
Tides and Currents Weather Stations Pressure Air Temp Water Temp Dewpoint Dewpoint Depression Visibility Wind Speed Wind Dir Waves Ship Positions

Deimos

Last reported at 2018-Jun-21 07:18 UTC. Time now 2018-Jun-21 13:55 UTC.
Position N 29°59' W 014°38'.

Length 94 m; draft 5.2 m.

Type: Cargo ship. MMSI: 352779000.

Date/timePositionNaut miles runAvg speedWind from/ knotsBaromVisibWave heightAir tempDewpointWater temp
2018-Jun-21 07:18N 29°59' W 014°38'310.0
2018-Jun-21 07:00N 29°56' W 014°39'7 9.8
2018-Jun-21 06:14N 29°49' W 014°42'4 9.7
2018-Jun-21 05:50N 29°45' W 014°43'3 9.7
2018-Jun-21 05:29N 29°42' W 014°45'5 9.8
2018-Jun-21 04:58N 29°37' W 014°47'6 9.9
2018-Jun-21 04:22N 29°31' W 014°49'7 9.9
2018-Jun-21 03:43N 29°25' W 014°51'4 9.9
2018-Jun-21 03:16N 29°21' W 014°53'4 9.9
2018-Jun-21 02:51N 29°17' W 014°54'4 9.9
2018-Jun-21 02:25N 29°13' W 014°56'4 9.9
2018-Jun-21 02:00N 29°09' W 014°58'5 9.9
2018-Jun-21 01:30N 29°05' W 015°00'5 9.8
2018-Jun-21 00:57N 28°60' W 015°02'4 9.8
2018-Jun-21 00:30N 28°56' W 015°04'5 9.9
2018-Jun-21 00:00N 28°51' W 015°06'5 9.9
2018-Jun-20 23:30N 28°47' W 015°08'5 9.8
2018-Jun-20 23:00N 28°42' W 015°10'5 9.6
2018-Jun-20 22:30N 28°37' W 015°12'5 9.7
2018-Jun-20 22:00N 28°33' W 015°13'5 9.8
2018-Jun-20 21:30N 28°28' W 015°15'510.0
2018-Jun-20 21:00N 28°23' W 015°17'510.1
2018-Jun-20 20:30N 28°19' W 015°19'510.5
2018-Jun-20 20:00N 28°14' W 015°20'510.2
2018-Jun-20 19:30N 28°09' W 015°22'2 4.9
2018-Jun-20 19:00N 28°08' W 015°25'0 0.4
2018-Jun-20 18:22N 28°08' W 015°25'0 0.0
2018-Jun-20 17:52N 28°08' W 015°25'0 0.0
2018-Jun-20 17:22N 28°08' W 015°25'0 0.0
2018-Jun-20 16:52N 28°08' W 015°25'0 0.0
2018-Jun-20 16:22N 28°08' W 015°25'0 0.0
2018-Jun-20 15:52N 28°08' W 015°25'0 0.0
2018-Jun-20 15:22N 28°08' W 015°25'0 0.0
2018-Jun-20 14:55N 28°08' W 015°25'0 0.0
2018-Jun-20 14:25N 28°08' W 015°25'0 0.0
2018-Jun-20 13:55N 28°08' W 015°25'0 0.0
2018-Jun-20 13:25N 28°08' W 015°25'0 0.0
2018-Jun-20 12:55N 28°08' W 015°25'0 0.0
2018-Jun-20 12:25N 28°08' W 015°25'0 0.0
2018-Jun-20 11:55N 28°08' W 015°25'0 0.0
2018-Jun-20 11:25N 28°08' W 015°25'0 0.0
2018-Jun-20 10:55N 28°08' W 015°25'0 0.0
2018-Jun-20 10:25N 28°08' W 015°25'0 0.0
2018-Jun-20 09:58N 28°08' W 015°25'0 0.0
2018-Jun-20 09:28N 28°08' W 015°25'0 0.0
2018-Jun-20 08:58N 28°08' W 015°25'0 0.0
2018-Jun-20 08:28N 28°08' W 015°25'0 0.0
2018-Jun-20 07:58N 28°08' W 015°25'0 0.0
2018-Jun-20 07:28N 28°08' W 015°25'1 1.4
2018-Jun-20 07:00N 28°08' W 015°25'3 6.8
2018-Jun-20 06:30N 28°07' W 015°21'510.0
2018-Jun-20 06:00N 28°08' W 015°15'510.1
2018-Jun-20 05:30N 28°08' W 015°09'510.1
2018-Jun-20 04:59N 28°09' W 015°04'510.1
2018-Jun-20 04:30N 28°07' W 014°58'510.1
2018-Jun-20 04:01N 28°06' W 014°53'510.1
2018-Jun-20 03:30N 28°03' W 014°49'510.2
2018-Jun-20 03:01N 27°60' W 014°44'510.2
2018-Jun-20 02:31N 27°56' W 014°40'510.1
2018-Jun-20 02:00N 27°53' W 014°35'5 9.8
2018-Jun-20 01:31N 27°50' W 014°30'1010.1
2018-Jun-20 00:31N 27°45' W 014°21'010.1
2018-Jun-20 00:29N 27°45' W 014°21'62 1.9
2018-Jun-18 15:09N 27°05' W 013°27'1 4.7
2018-Jun-18 14:58N 27°06' W 013°27'0 0.2
2018-Jun-18 14:13N 27°06' W 013°27'0 0.0
2018-Jun-18 13:58N 27°06' W 013°27'  
Track history (hours):
 
Tides and Currents Weather Stations Pressure Air Temp Water Temp Dewpoint Dewpoint Depression Visibility Wind Speed Wind Dir Waves Ship Positions

Deimos

Last reported at 2018-Jun-21 07:18 UTC. Time now 2018-Jun-21 13:55 UTC.
Position N 29°59' W 014°38'.

Length 94 m; draft 5.2 m.

Type: Cargo ship. MMSI: 352779000.

Date/timePositionNaut miles runAvg speedWind from/ knotsBaromVisibWave heightAir tempDewpointWater temp
2018-Jun-21 07:18N 29°59' W 014°38'310.0
2018-Jun-21 07:00N 29°56' W 014°39'7 9.8
2018-Jun-21 06:14N 29°49' W 014°42'4 9.7
2018-Jun-21 05:50N 29°45' W 014°43'3 9.7
2018-Jun-21 05:29N 29°42' W 014°45'5 9.8
2018-Jun-21 04:58N 29°37' W 014°47'6 9.9
2018-Jun-21 04:22N 29°31' W 014°49'7 9.9
2018-Jun-21 03:43N 29°25' W 014°51'4 9.9
2018-Jun-21 03:16N 29°21' W 014°53'4 9.9
2018-Jun-21 02:51N 29°17' W 014°54'4 9.9
2018-Jun-21 02:25N 29°13' W 014°56'4 9.9
2018-Jun-21 02:00N 29°09' W 014°58'5 9.9
2018-Jun-21 01:30N 29°05' W 015°00'5 9.8
2018-Jun-21 00:57N 28°60' W 015°02'4 9.8
2018-Jun-21 00:30N 28°56' W 015°04'5 9.9
2018-Jun-21 00:00N 28°51' W 015°06'5 9.9
2018-Jun-20 23:30N 28°47' W 015°08'5 9.8
2018-Jun-20 23:00N 28°42' W 015°10'5 9.6
2018-Jun-20 22:30N 28°37' W 015°12'5 9.7
2018-Jun-20 22:00N 28°33' W 015°13'5 9.8
2018-Jun-20 21:30N 28°28' W 015°15'510.0
2018-Jun-20 21:00N 28°23' W 015°17'510.1
2018-Jun-20 20:30N 28°19' W 015°19'510.5
2018-Jun-20 20:00N 28°14' W 015°20'510.2
2018-Jun-20 19:30N 28°09' W 015°22'2 4.9
2018-Jun-20 19:00N 28°08' W 015°25'0 0.4
2018-Jun-20 18:22N 28°08' W 015°25'0 0.0
2018-Jun-20 17:52N 28°08' W 015°25'0 0.0
2018-Jun-20 17:22N 28°08' W 015°25'0 0.0
2018-Jun-20 16:52N 28°08' W 015°25'0 0.0
2018-Jun-20 16:22N 28°08' W 015°25'0 0.0
2018-Jun-20 15:52N 28°08' W 015°25'0 0.0
2018-Jun-20 15:22N 28°08' W 015°25'0 0.0
2018-Jun-20 14:55N 28°08' W 015°25'0 0.0
2018-Jun-20 14:25N 28°08' W 015°25'0 0.0
2018-Jun-20 13:55N 28°08' W 015°25'0 0.0
2018-Jun-20 13:25N 28°08' W 015°25'0 0.0
2018-Jun-20 12:55N 28°08' W 015°25'0 0.0
2018-Jun-20 12:25N 28°08' W 015°25'0 0.0
2018-Jun-20 11:55N 28°08' W 015°25'0 0.0
2018-Jun-20 11:25N 28°08' W 015°25'0 0.0
2018-Jun-20 10:55N 28°08' W 015°25'0 0.0
2018-Jun-20 10:25N 28°08' W 015°25'0 0.0
2018-Jun-20 09:58N 28°08' W 015°25'0 0.0
2018-Jun-20 09:28N 28°08' W 015°25'0 0.0
2018-Jun-20 08:58N 28°08' W 015°25'0 0.0
2018-Jun-20 08:28N 28°08' W 015°25'0 0.0
2018-Jun-20 07:58N 28°08' W 015°25'0 0.0
2018-Jun-20 07:28N 28°08' W 015°25'1 1.4
2018-Jun-20 07:00N 28°08' W 015°25'3 6.8
2018-Jun-20 06:30N 28°07' W 015°21'510.0
2018-Jun-20 06:00N 28°08' W 015°15'510.1
2018-Jun-20 05:30N 28°08' W 015°09'510.1
2018-Jun-20 04:59N 28°09' W 015°04'510.1
2018-Jun-20 04:30N 28°07' W 014°58'510.1
2018-Jun-20 04:01N 28°06' W 014°53'510.1
2018-Jun-20 03:30N 28°03' W 014°49'510.2
2018-Jun-20 03:01N 27°60' W 014°44'510.2
2018-Jun-20 02:31N 27°56' W 014°40'510.1
2018-Jun-20 02:00N 27°53' W 014°35'5 9.8
2018-Jun-20 01:31N 27°50' W 014°30'1010.1
2018-Jun-20 00:31N 27°45' W 014°21'010.1
2018-Jun-20 00:29N 27°45' W 014°21'62 1.9
2018-Jun-18 15:09N 27°05' W 013°27'1 4.7
2018-Jun-18 14:58N 27°06' W 013°27'0 0.2
2018-Jun-18 14:13N 27°06' W 013°27'0 0.0
2018-Jun-18 13:58N 27°06' W 013°27'  

Dump ship's entire track history